createdAt,value
2023-04-07T00:02:07.527Z,100174.77
2023-04-07T00:05:12.992Z,100181.41
2023-04-07T00:08:18.111Z,100170.11
2023-04-07T00:11:23.531Z,100171.38
2023-04-07T00:14:29.506Z,100176.86
2023-04-07T00:17:35.459Z,100169.16
2023-04-07T00:20:41.182Z,100167.90
2023-04-07T00:23:47.243Z,100171.12
2023-04-07T00:26:53.213Z,100168.64
2023-04-07T00:29:58.970Z,100177.41
2023-04-07T00:33:05.803Z,100183.02
2023-04-07T00:36:13.683Z,100179.30
2023-04-07T00:39:19.681Z,100174.17
2023-04-07T00:42:25.803Z,100171.59
2023-04-07T00:45:31.883Z,100172.87
2023-04-07T00:48:37.915Z,100172.87
2023-04-07T00:51:44.071Z,100173.38
2023-04-07T00:54:49.622Z,100176.51
2023-04-07T00:57:54.375Z,100174.88
2023-04-07T01:01:17.080Z,100173.18
2023-04-07T01:04:32.154Z,100168.38
2023-04-07T01:07:53.873Z,100173.02
2023-04-07T01:11:15.936Z,100166.57
2023-04-07T01:14:22.583Z,100177.05
2023-04-07T01:17:32.492Z,100176.53
2023-04-07T01:20:39.227Z,100180.80
2023-04-07T01:24:29.628Z,100179.55
2023-04-07T01:28:17.194Z,100182.73
2023-04-07T01:33:49.208Z,100181.21
2023-04-07T01:39:20.775Z,100179.87
2023-04-07T01:42:26.308Z,100188.67
2023-04-07T01:47:58.864Z,100184.69
2023-04-07T01:53:31.985Z,100177.27
2023-04-07T01:59:07.149Z,100175.85
2023-04-07T02:02:13.363Z,100178.64
2023-04-07T02:05:24.188Z,100178.02
2023-04-07T02:08:32.323Z,100179.70
2023-04-07T02:11:39.762Z,100175.84
2023-04-07T02:14:45.527Z,100171.58
2023-04-07T02:17:56.458Z,100167.59
2023-04-07T02:23:28.983Z,100159.32
2023-04-07T02:29:01.150Z,100161.69
2023-04-07T02:34:34.077Z,100164.90
2023-04-07T02:37:39.577Z,100168.61
2023-04-07T02:40:37.919Z,100164.47
2023-04-07T02:43:44.013Z,100161.77
2023-04-07T02:46:49.400Z,100162.61
2023-04-07T02:49:55.044Z,100159.05
2023-04-07T02:53:01.562Z,100160.75
2023-04-07T02:56:08.155Z,100159.55
2023-04-07T02:59:15.418Z,100149.88
2023-04-07T03:02:21.985Z,100157.27
2023-04-07T03:05:29.140Z,100153.78
2023-04-07T03:08:35.603Z,100157.11
2023-04-07T03:11:43.082Z,100160.94
2023-04-07T03:14:48.663Z,100168.95
2023-04-07T03:17:56.976Z,100161.72
2023-04-07T03:21:03.669Z,100162.87
2023-04-07T03:24:09.425Z,100166.50
2023-04-07T03:27:15.550Z,100160.05
2023-04-07T03:30:22.437Z,100167.70
2023-04-07T03:33:28.818Z,100172.98
2023-04-07T03:36:35.196Z,100176.02
2023-04-07T03:39:43.252Z,100172.62
2023-04-07T03:43:00.549Z,100183.36
2023-04-07T03:46:07.210Z,100178.91
2023-04-07T03:49:13.684Z,100184.78
2023-04-07T03:52:21.047Z,100182.18
2023-04-07T03:55:28.843Z,100186.57
2023-04-07T03:58:36.489Z,100190.92
2023-04-07T04:01:44.912Z,100190.86
2023-04-07T04:04:51.468Z,100191.39
2023-04-07T04:07:59.693Z,100189.79
2023-04-07T04:11:06.382Z,100185.94
2023-04-07T04:14:15.103Z,100190.20
2023-04-07T04:17:23.001Z,100192.48
2023-04-07T04:20:29.797Z,100192.20
2023-04-07T04:23:37.252Z,100198.22
2023-04-07T04:26:43.746Z,100197.93
2023-04-07T04:29:51.267Z,100200.68
2023-04-07T04:32:59.568Z,100206.02
2023-04-07T04:36:16.964Z,100212.46
2023-04-07T04:39:25.541Z,100210.70
2023-04-07T04:42:30.606Z,100216.77
2023-04-07T04:45:36.930Z,100214.11
2023-04-07T04:48:43.501Z,100210.59
2023-04-07T04:51:49.351Z,100201.73
2023-04-07T04:54:55.179Z,100204.83
2023-04-07T04:58:01.274Z,100208.39
2023-04-07T05:01:09.496Z,100214.27
2023-04-07T05:04:17.637Z,100206.82
2023-04-07T05:07:26.149Z,100205.66
2023-04-07T05:10:33.228Z,100211.48
2023-04-07T05:13:40.894Z,100205.51
2023-04-07T05:16:46.766Z,100212.99
2023-04-07T05:19:54.061Z,100215.67
2023-04-07T05:23:02.605Z,100215.72
2023-04-07T05:26:07.865Z,100214.74
2023-04-07T05:29:12.880Z,100222.82
2023-04-07T05:32:20.526Z,100222.73
2023-04-07T05:35:27.150Z,100223.67
2023-04-07T05:38:32.678Z,100226.22
2023-04-07T05:41:40.606Z,100233.23
2023-04-07T05:44:47.893Z,100232.71
2023-04-07T05:47:57.691Z,100234.45
2023-04-07T05:51:05.888Z,100234.28
2023-04-07T05:54:14.023Z,100234.38
2023-04-07T05:57:22.149Z,100236.03
2023-04-07T06:00:29.930Z,100232.55
2023-04-07T06:03:38.276Z,100238.33
2023-04-07T06:06:49.343Z,100237.64
2023-04-07T06:10:07.273Z,100239.69
2023-04-07T06:13:15.141Z,100246.19
2023-04-07T06:16:22.988Z,100230.80
2023-04-07T06:19:30.310Z,100233.05
2023-04-07T06:22:35.902Z,100235.22
2023-04-07T06:25:41.763Z,100240.87
2023-04-07T06:28:48.017Z,100238.60
2023-04-07T06:31:54.173Z,100241.70
2023-04-07T06:34:59.579Z,100244.08
2023-04-07T06:38:05.113Z,100246.67
2023-04-07T06:41:10.941Z,100252.15
2023-04-07T06:44:16.525Z,100256.33
2023-04-07T06:47:22.049Z,100251.53
2023-04-07T06:50:29.071Z,100249.25
2023-04-07T06:53:36.913Z,100252.80
2023-04-07T06:56:44.967Z,100252.42
2023-04-07T06:59:50.830Z,100256.03
2023-04-07T07:03:00.106Z,100257.22
2023-04-07T07:06:06.828Z,100260.28
2023-04-07T07:09:21.037Z,100260.24
2023-04-07T07:15:01.040Z,100263.65
2023-04-07T07:20:37.127Z,100267.63
2023-04-07T07:26:09.118Z,100267.69
2023-04-07T07:29:14.481Z,100270.41
2023-04-07T07:34:45.907Z,100270.34
2023-04-07T07:37:51.245Z,100274.45
2023-04-07T07:45:52.464Z,100280.26
2023-04-07T07:48:58.835Z,100278.45
2023-04-07T07:52:04.238Z,100268.67
2023-04-07T07:57:39.527Z,100273.38
2023-04-07T08:00:46.056Z,100271.20
2023-04-07T08:03:53.314Z,100267.69
2023-04-07T08:09:25.704Z,100269.52
2023-04-07T08:12:31.005Z,100268.72
2023-04-07T08:18:02.501Z,100266.91
2023-04-07T08:21:08.675Z,100260.18
2023-04-07T08:24:16.675Z,100265.11
2023-04-07T08:27:25.549Z,100258.68
2023-04-07T08:30:31.424Z,100259.80
2023-04-07T08:33:37.546Z,100262.80
2023-04-07T08:36:44.049Z,100261.95
2023-04-07T08:39:50.471Z,100257.08
2023-04-07T08:42:57.433Z,100253.16
2023-04-07T08:46:03.539Z,100247.28
2023-04-07T08:49:11.214Z,100253.83
2023-04-07T08:52:16.989Z,100256.50
2023-04-07T08:55:23.654Z,100249.38
2023-04-07T08:58:29.181Z,100250.80
2023-04-07T09:01:34.374Z,100249.27
2023-04-07T09:04:40.807Z,100254.34
2023-04-07T09:07:53.556Z,100255.48
2023-04-07T09:10:59.075Z,100252.11
2023-04-07T09:14:08.145Z,100260.48
2023-04-07T09:17:14.588Z,100259.11
2023-04-07T09:20:21.353Z,100254.86
2023-04-07T09:23:35.793Z,100260.72
2023-04-07T09:26:43.470Z,100267.39
2023-04-07T09:29:50.035Z,100265.80
2023-04-07T09:32:55.626Z,100263.92
2023-04-07T09:36:07.654Z,100262.22
2023-04-07T09:39:14.629Z,100249.32
2023-04-07T09:42:22.290Z,100255.31
2023-04-07T09:45:34.762Z,100255.48
2023-04-07T09:48:38.955Z,100254.15
2023-04-07T09:51:44.245Z,100274.37
2023-04-07T09:54:56.503Z,100256.36
2023-04-07T09:58:03.442Z,100261.16
2023-04-07T10:01:09.391Z,100260.03
2023-04-07T10:04:15.525Z,100250.01
2023-04-07T10:07:21.858Z,100263.91
2023-04-07T10:10:28.851Z,100264.94
2023-04-07T10:13:35.273Z,100259.80
2023-04-07T10:16:41.974Z,100259.83
2023-04-07T10:19:48.837Z,100263.98
2023-04-07T10:22:57.376Z,100259.26
2023-04-07T10:26:02.772Z,100257.18
2023-04-07T10:29:13.386Z,100261.16
2023-04-07T10:32:23.210Z,100258.46
2023-04-07T10:35:30.384Z,100258.60
2023-04-07T10:38:35.792Z,100256.16
2023-04-07T10:41:51.805Z,100261.32
2023-04-07T10:45:00.463Z,100260.81
2023-04-07T10:48:24.722Z,100260.94
2023-04-07T10:54:38.288Z,100268.89
2023-04-07T10:57:30.656Z,100264.06
2023-04-07T11:03:09.187Z,100262.86
2023-04-07T11:08:54.361Z,100264.96
2023-04-07T11:12:01.894Z,100258.14
2023-04-07T11:15:09.516Z,100255.91
2023-04-07T11:18:24.048Z,100249.11
2023-04-07T11:21:33.258Z,100245.04
2023-04-07T11:24:51.290Z,100238.58
2023-04-07T11:27:59.753Z,100239.61
2023-04-07T11:31:06.910Z,100239.97
2023-04-07T11:34:17.674Z,100238.10
2023-04-07T11:37:40.242Z,100241.86
2023-04-07T11:40:50.798Z,100229.58
2023-04-07T11:43:57.958Z,100228.58
2023-04-07T11:47:13.388Z,100224.52
2023-04-07T11:50:19.083Z,100222.78
2023-04-07T11:53:23.834Z,100230.48
2023-04-07T11:56:30.701Z,100231.66
2023-04-07T11:59:40.490Z,100237.11
2023-04-07T12:02:47.352Z,100228.27
2023-04-07T12:06:01.209Z,100224.84
2023-04-07T12:09:07.583Z,100229.96
2023-04-07T12:12:17.630Z,100224.32
2023-04-07T12:15:00.534Z,100222.25
2023-04-07T12:20:37.813Z,100214.75
2023-04-07T12:23:44.720Z,100212.70
2023-04-07T12:26:50.745Z,100214.58
2023-04-07T12:32:24.460Z,100204.69
2023-04-07T12:37:58.244Z,100206.39
2023-04-07T12:41:06.348Z,100195.12
2023-04-07T12:46:38.046Z,100184.86
2023-04-07T12:49:43.646Z,100189.98
2023-04-07T12:52:50.416Z,100186.02
2023-04-07T12:55:56.041Z,100175.27
2023-04-07T12:59:03.327Z,100173.19
2023-04-07T13:02:10.312Z,100175.02
2023-04-07T13:05:16.883Z,100174.30
2023-04-07T13:08:23.189Z,100168.66
2023-04-07T13:13:57.960Z,100166.88
2023-04-07T13:17:05.675Z,100175.02
2023-04-07T13:20:11.868Z,100175.63
2023-04-07T13:25:46.224Z,100173.06
2023-04-07T13:28:52.933Z,100172.80
2023-04-07T13:31:43.279Z,100178.78
2023-04-07T13:37:20.700Z,100173.78
2023-04-07T13:40:27.117Z,100178.59
2023-04-07T13:43:34.865Z,100185.14
2023-04-07T13:51:37.398Z,100179.87
2023-04-07T13:54:42.923Z,100186.06
2023-04-07T14:00:15.437Z,100186.06
2023-04-07T14:05:47.745Z,100183.41
2023-04-07T14:11:20.001Z,100184.77
2023-04-07T14:14:26.640Z,100183.07
2023-04-07T14:19:58.988Z,100184.11
2023-04-07T14:23:04.361Z,100178.26
2023-04-07T14:28:36.771Z,100186.12
2023-04-07T14:34:08.028Z,100179.05
2023-04-07T14:37:14.956Z,100182.64
2023-04-07T14:42:47.201Z,100183.81
2023-04-07T14:48:19.045Z,100188.59
2023-04-07T14:53:54.295Z,100175.75
2023-04-07T14:59:27.324Z,100184.45
2023-04-07T15:07:31.286Z,100183.41
2023-04-07T15:10:36.820Z,100177.77
2023-04-07T15:13:43.691Z,100180.70
2023-04-07T15:16:50.044Z,100185.98
2023-04-07T15:19:55.357Z,100188.42
2023-04-07T15:23:01.214Z,100181.91
2023-04-07T15:26:06.932Z,100185.55
2023-04-07T15:29:13.547Z,100179.11
2023-04-07T15:32:18.919Z,100178.66
2023-04-07T15:35:24.650Z,100179.84
2023-04-07T15:38:30.980Z,100182.34
2023-04-07T15:41:36.661Z,100183.42
2023-04-07T15:44:43.958Z,100193.71
2023-04-07T15:47:49.800Z,100195.23
2023-04-07T15:50:55.434Z,100194.37
2023-04-07T15:54:01.010Z,100193.96
2023-04-07T15:57:06.186Z,100192.03
2023-04-07T16:00:12.717Z,100196.70
2023-04-07T16:03:20.139Z,100192.71
2023-04-07T16:06:26.087Z,100196.06
2023-04-07T16:09:32.596Z,100189.65
2023-04-07T16:12:41.585Z,100190.50
2023-04-07T16:18:13.377Z,100196.50
2023-04-07T16:21:21.833Z,100196.20
2023-04-07T16:26:59.710Z,100198.97
2023-04-07T16:30:07.023Z,100194.02
2023-04-07T16:33:14.015Z,100203.79
2023-04-07T16:36:21.591Z,100202.73
2023-04-07T16:39:29.317Z,100209.05
2023-04-07T16:42:36.071Z,100210.97
2023-04-07T16:45:42.447Z,100210.97
2023-04-07T16:51:14.904Z,100203.14
2023-04-07T16:56:47.036Z,100228.09
2023-04-07T16:59:53.224Z,100218.92
2023-04-07T17:02:59.056Z,100230.19
2023-04-07T17:08:32.860Z,100233.39
2023-04-07T17:14:04.637Z,100230.64
2023-04-07T17:19:39.239Z,100238.31
2023-04-07T17:22:45.107Z,100241.80
2023-04-07T17:25:52.572Z,100241.79
2023-04-07T17:31:28.212Z,100252.16
2023-04-07T17:37:00.428Z,100265.00
2023-04-07T17:42:33.627Z,100272.38
2023-04-07T17:45:40.087Z,100284.68
2023-04-07T17:48:46.733Z,100293.39
2023-04-07T17:51:53.412Z,100292.70
2023-04-07T17:54:43.208Z,100291.70
2023-04-07T18:00:15.401Z,100292.88
2023-04-07T18:03:22.574Z,100286.23
2023-04-07T18:06:32.452Z,100285.34
2023-04-07T18:09:38.654Z,100284.49
2023-04-07T18:12:45.256Z,100285.00
2023-04-07T18:15:28.345Z,100285.00
2023-04-07T18:18:34.211Z,100287.59
2023-04-07T18:24:07.444Z,100285.18
2023-04-07T18:27:13.276Z,100296.12
2023-04-07T18:30:20.403Z,100283.84
2023-04-07T18:33:26.966Z,100291.00
2023-04-07T18:38:59.945Z,100282.13
2023-04-07T18:42:05.494Z,100286.02
2023-04-07T18:45:11.501Z,100290.64
2023-04-07T18:48:18.149Z,100285.88
2023-04-07T18:51:24.231Z,100288.28
2023-04-07T18:54:33.634Z,100287.06
2023-04-07T18:57:39.883Z,100283.48
2023-04-07T19:00:46.318Z,100284.70
2023-04-07T19:03:53.130Z,100287.95
2023-04-07T19:06:59.351Z,100285.36
2023-04-07T19:10:04.501Z,100291.02
2023-04-07T19:13:10.792Z,100291.21
2023-04-07T19:16:17.977Z,100285.74
2023-04-07T19:19:25.323Z,100291.36
2023-04-07T19:24:58.077Z,100288.81
2023-04-07T19:28:03.880Z,100288.66
2023-04-07T19:31:10.141Z,100282.64
2023-04-07T19:34:15.935Z,100279.77
2023-04-07T19:37:25.044Z,100279.28
2023-04-07T19:40:31.488Z,100280.46
2023-04-07T19:43:38.138Z,100288.84
2023-04-07T19:46:43.707Z,100302.48
2023-04-07T19:49:49.547Z,100305.73
2023-04-07T19:52:57.308Z,100306.75
2023-04-07T19:56:03.747Z,100303.02
2023-04-07T19:59:09.495Z,100301.80
2023-04-07T20:02:14.693Z,100290.53
2023-04-07T20:05:20.053Z,100287.83
2023-04-07T20:10:51.078Z,100296.88
2023-04-07T20:16:25.562Z,100296.69
2023-04-07T20:19:31.082Z,100291.08
2023-04-07T20:22:36.686Z,100294.97
2023-04-07T20:28:11.849Z,100290.03
2023-04-07T20:31:17.953Z,100292.41
2023-04-07T20:34:24.387Z,100293.94
2023-04-07T20:37:33.270Z,100294.97
2023-04-07T20:40:39.565Z,100292.58
2023-04-07T20:43:46.440Z,100290.35
2023-04-07T20:46:53.959Z,100289.66
2023-04-07T20:50:02.726Z,100280.11
2023-04-07T20:53:09.791Z,100292.59
2023-04-07T20:56:17.071Z,100291.21
2023-04-07T20:59:23.920Z,100288.83
2023-04-07T21:02:29.569Z,100281.32
2023-04-07T21:05:35.578Z,100281.82
2023-04-07T21:08:42.420Z,100273.97
2023-04-07T21:11:48.702Z,100274.00
2023-04-07T21:14:54.746Z,100266.12
2023-04-07T21:18:00.775Z,100270.41
2023-04-07T21:21:09.246Z,100269.36
2023-04-07T21:24:14.796Z,100267.98
2023-04-07T21:27:20.123Z,100263.38
2023-04-07T21:30:28.905Z,100261.69
2023-04-07T21:33:35.060Z,100259.66
2023-04-07T21:36:41.237Z,100259.30
2023-04-07T21:39:47.728Z,100257.25
2023-04-07T21:42:54.872Z,100255.89
2023-04-07T21:46:01.945Z,100255.20
2023-04-07T21:49:07.902Z,100257.23
2023-04-07T21:52:14.237Z,100254.36
2023-04-07T21:55:21.041Z,100265.09
2023-04-07T22:00:52.894Z,100270.70
2023-04-07T22:03:59.908Z,100268.82
2023-04-07T22:07:06.424Z,100268.28
2023-04-07T22:15:09.190Z,100271.19
2023-04-07T22:20:43.470Z,100276.48
2023-04-07T22:26:15.338Z,100275.62
2023-04-07T22:29:20.426Z,100272.50
2023-04-07T22:34:52.435Z,100280.70
2023-04-07T22:37:57.565Z,100281.73
2023-04-07T22:41:05.289Z,100283.45
2023-04-07T22:44:11.477Z,100279.70
2023-04-07T22:47:17.957Z,100281.41
2023-04-07T22:50:25.122Z,100282.44
2023-04-07T22:53:31.364Z,100285.66
2023-04-07T22:56:37.846Z,100282.77
2023-04-07T22:59:43.551Z,100283.63
2023-04-07T23:02:50.162Z,100288.21
2023-04-07T23:05:57.156Z,100287.36
2023-04-07T23:09:02.986Z,100280.02
2023-04-07T23:12:10.203Z,100285.82
2023-04-07T23:15:16.001Z,100285.63
2023-04-07T23:18:21.744Z,100278.95
2023-04-07T23:21:28.649Z,100277.37
2023-04-07T23:24:35.443Z,100282.30
2023-04-07T23:27:40.470Z,100287.58
2023-04-07T23:30:47.557Z,100281.89
2023-04-07T23:33:54.230Z,100279.72
2023-04-07T23:37:01.689Z,100275.78
2023-04-07T23:40:08.126Z,100269.97
2023-04-07T23:43:14.079Z,100276.36
2023-04-07T23:46:19.739Z,100272.73
2023-04-07T23:49:25.569Z,100267.74
2023-04-07T23:52:31.858Z,100263.29
2023-04-07T23:55:38.976Z,100272.42
2023-04-07T23:58:44.954Z,100265.64
